Terminal Aerodrome Forecast
Issued by NWS

Home | Current Version | Previous Version | Text Only | Print | Product List | Glossary On
Versions: 1 2 3 4 5 6 7 8 9 10 11 12 13 14 15 16 17 18 19 20 21 22 23 24 25 26 27 28 29 30 31 32 33 34
000
FTUS41 KCTP 241313 AAA
TAFLNS
TAF AMD
KLNS 241313Z 2413/2512 06006KT 6SM HZ BKN080
     FM241600 14008G15KT P6SM OVC100
     FM250500 10010G20KT 5SM -SHRA BR OVC030
     FM251000 08008G15KT 2SM SHRA BR OVC015=

USA.gov is the U.S. government's official web portal to all federal, state and local government web resources and services.